Time;durP1;ratioP1;P1;durP2;ratioP2;P2;SDS_P1;SDS_P2;PMS_P1;PMS_P2;Temp;Humidity;BMP_temperature;BMP_pressure;BME280_temperature;BME280_humidity;BME280_pressure;Samples;Min_cycle;Max_cycle;Signal;HPM_P1;HPM_P2
2021/04/02 00:01:14;;;;;;;;;;;9.10;99.90;;;;;;5055946;28;19913;-79
2021/04/02 00:03:40;;;;;;;;;;;8.90;99.90;;;;;;5054625;28;19908;-79
2021/04/02 00:06:06;;;;;;;;;;;8.90;99.90;;;;;;5054166;28;20379;-79
2021/04/02 00:08:32;;;;;;;;;;;8.80;99.90;;;;;;5055841;28;19982;-79
2021/04/02 00:11:03;;;;;;;;;;;8.90;99.90;;;;;;5054540;28;20379;-79
2021/04/02 00:13:30;;;;;;;;;;;9.00;99.90;;;;;;5055175;28;20385;-79
2021/04/02 00:15:56;;;;;;;;;;;8.90;99.90;;;;;;5055795;28;20379;-79
2021/04/02 00:18:22;;;;;;;;;;;8.90;99.90;;;;;;5055477;28;19905;-79
2021/04/02 00:20:48;;;;;;;;;;;8.80;99.90;;;;;;5055681;28;19939;-79
2021/04/02 00:23:14;;;;;;;;;;;8.70;99.90;;;;;;5052543;28;20007;-79
2021/04/02 00:25:39;;;;;;;;;;;8.50;99.90;;;;;;5053517;28;19970;-79
2021/04/02 00:28:06;;;;;;;;;;;8.60;99.90;;;;;;5055357;28;19905;-79
2021/04/02 00:30:37;;;;;;;;;;;8.50;99.90;;;;;;5053369;28;19955;-79
2021/04/02 00:33:04;;;;;;;;;;;8.30;99.90;;;;;;5055242;28;19935;-79
2021/04/02 00:35:30;;;;;;;;;;;8.20;99.90;;;;;;5054913;28;20300;-79
2021/04/02 00:37:55;;;;;;;;;;;8.20;99.90;;;;;;5055384;28;19924;-79
2021/04/02 00:40:23;;;;;;;;;;;8.30;99.90;;;;;;5054763;28;19905;-79
2021/04/02 00:42:48;;;;;;;;;;;8.30;99.90;;;;;;5055264;28;19905;-79
2021/04/02 00:45:15;;;;;;;;;;;8.40;99.90;;;;;;5055063;28;20390;-79
2021/04/02 00:47:41;;;;;;;;;;;8.30;99.90;;;;;;5054855;28;19947;-79
2021/04/02 00:50:12;;;;;;;;;;;8.10;99.90;;;;;;5055080;28;19908;-79
2021/04/02 00:52:37;;;;;;;;;;;8.20;99.90;;;;;;5054541;28;20000;-79
2021/04/02 00:55:03;;;;;;;;;;;8.10;99.90;;;;;;5054246;28;19944;-79
2021/04/02 00:57:31;;;;;;;;;;;8.20;99.90;;;;;;5054695;28;19908;-79
2021/04/02 00:59:56;;;;;;;;;;;8.20;99.90;;;;;;5054853;28;19912;-78
2021/04/02 01:02:22;;;;;;;;;;;8.20;99.90;;;;;;5054530;28;19909;-79
2021/04/02 01:04:47;;;;;;;;;;;8.10;99.90;;;;;;5054464;28;19923;-78
2021/04/02 01:07:13;;;;;;;;;;;7.90;99.90;;;;;;5054226;28;19952;-79
2021/04/02 01:09:38;;;;;;;;;;;8.00;99.90;;;;;;5054243;28;20300;-79
2021/04/02 01:12:05;;;;;;;;;;;8.20;99.90;;;;;;5054619;28;20295;-79
2021/04/02 01:14:30;;;;;;;;;;;8.20;99.90;;;;;;5054458;28;19905;-79
2021/04/02 01:16:56;;;;;;;;;;;8.20;99.90;;;;;;5054636;28;19912;-79
2021/04/02 01:19:51;;;;;;;;;;;8.10;99.90;;;;;;5054031;28;20265;-79
2021/04/02 01:22:21;;;;;;;;;;;7.90;99.90;;;;;;5040990;28;20318;-78
2021/04/02 01:24:57;;;;;;;;;;;7.60;99.90;;;;;;5054058;28;19913;-78
2021/04/02 01:27:49;;;;;;;;;;;7.60;99.90;;;;;;5054187;28;19944;-79
2021/04/02 01:30:15;;;;;;;;;;;7.70;99.90;;;;;;4992015;28;19993;-79
2021/04/02 01:32:45;;;;;;;;;;;7.80;99.90;;;;;;4976484;28;19996;-79
2021/04/02 01:35:15;;;;;;;;;;;7.90;99.90;;;;;;4992118;28;20025;-78
2021/04/02 01:37:53;;;;;;;;;;;7.90;99.90;;;;;;4992117;28;19910;-79
2021/04/02 01:40:20;;;;;;;;;;;7.70;99.90;;;;;;4992685;28;20009;-78
2021/04/02 01:42:46;;;;;;;;;;;7.70;99.90;;;;;;4991967;28;19909;-79
2021/04/02 01:45:13;;;;;;;;;;;7.80;99.90;;;;;;4992619;28;19912;-79
2021/04/02 01:47:39;;;;;;;;;;;7.90;99.90;;;;;;4992416;28;19913;-79
2021/04/02 01:50:07;;;;;;;;;;;8.00;99.90;;;;;;4992559;28;19906;-79
2021/04/02 01:52:33;;;;;;;;;;;7.90;99.90;;;;;;4991783;28;20373;-78
2021/04/02 01:54:59;;;;;;;;;;;7.80;99.90;;;;;;4992338;28;19958;-78
2021/04/02 01:57:25;;;;;;;;;;;7.60;99.90;;;;;;4992251;28;19905;-79
2021/04/02 01:59:51;;;;;;;;;;;7.40;99.90;;;;;;4992374;28;20008;-79
2021/04/02 02:02:17;;;;;;;;;;;7.40;99.90;;;;;;4992236;28;19983;-79
2021/04/02 02:04:45;;;;;;;;;;;7.40;99.90;;;;;;4991546;28;19910;-78
2021/04/02 02:07:11;;;;;;;;;;;7.50;99.90;;;;;;5026223;28;19904;-79
2021/04/02 02:09:38;;;;;;;;;;;7.70;99.90;;;;;;5053397;28;19904;-78
2021/04/02 02:12:05;;;;;;;;;;;7.70;99.90;;;;;;5053595;28;19912;-78
2021/04/02 02:14:32;;;;;;;;;;;7.70;99.90;;;;;;5052790;28;19908;-78
2021/04/02 02:16:59;;;;;;;;;;;7.60;99.90;;;;;;5053467;28;19908;-78
2021/04/02 02:19:26;;;;;;;;;;;7.40;99.90;;;;;;5053141;28;19905;-79
2021/04/02 02:21:53;;;;;;;;;;;7.40;99.90;;;;;;5052934;28;20315;-79
2021/04/02 02:24:19;;;;;;;;;;;7.40;99.90;;;;;;5053249;28;19909;-78
2021/04/02 02:26:45;;;;;;;;;;;7.20;99.90;;;;;;5053088;28;20007;-78
2021/04/02 02:29:11;;;;;;;;;;;7.00;99.90;;;;;;5053467;28;19905;-78
2021/04/02 02:31:37;;;;;;;;;;;7.00;99.90;;;;;;5052925;28;19905;-78
2021/04/02 02:34:03;;;;;;;;;;;6.90;99.90;;;;;;5053114;28;19928;-78
2021/04/02 02:36:29;;;;;;;;;;;6.70;99.90;;;;;;5051594;28;19913;-78
2021/04/02 02:38:55;;;;;;;;;;;6.90;99.90;;;;;;5052905;28;20423;-78
2021/04/02 02:41:21;;;;;;;;;;;6.90;99.90;;;;;;5052906;28;19909;-78
2021/04/02 02:43:47;;;;;;;;;;;6.90;99.90;;;;;;5052722;28;19909;-78
2021/04/02 02:46:14;;;;;;;;;;;6.90;99.90;;;;;;5052982;28;20265;-78
2021/04/02 02:48:45;;;;;;;;;;;7.00;99.90;;;;;;5053102;28;19912;-78
2021/04/02 02:51:11;;;;;;;;;;;7.00;99.90;;;;;;5052081;28;19962;-78
2021/04/02 02:53:37;;;;;;;;;;;7.00;99.90;;;;;;5051802;28;19916;-78
2021/04/02 02:56:03;;;;;;;;;;;7.10;99.90;;;;;;5052747;28;19957;-79
2021/04/02 02:58:29;;;;;;;;;;;7.00;99.90;;;;;;5053118;28;19963;-78
2021/04/02 03:00:56;;;;;;;;;;;7.00;99.90;;;;;;5052563;28;20388;-79
2021/04/02 03:03:22;;;;;;;;;;;7.00;99.90;;;;;;5052600;28;19908;-78
2021/04/02 03:05:48;;;;;;;;;;;7.00;99.90;;;;;;5050469;28;20376;-78
2021/04/02 03:08:16;;;;;;;;;;;6.90;99.90;;;;;;5051362;28;20372;-78
2021/04/02 03:10:42;;;;;;;;;;;7.00;99.90;;;;;;5052698;28;20350;-78
2021/04/02 03:13:07;;;;;;;;;;;7.00;99.90;;;;;;5052106;28;19955;-79
2021/04/02 03:15:34;;;;;;;;;;;7.10;99.90;;;;;;5052673;28;19951;-78
2021/04/02 03:18:04;;;;;;;;;;;6.90;99.90;;;;;;5052552;28;20353;-78
2021/04/02 03:20:32;;;;;;;;;;;6.80;99.90;;;;;;5052435;28;19912;-79
2021/04/02 03:22:58;;;;;;;;;;;6.90;99.90;;;;;;5052221;28;20303;-79
2021/04/02 03:25:25;;;;;;;;;;;7.10;99.90;;;;;;5052657;28;20003;-79
2021/04/02 03:27:51;;;;;;;;;;;7.30;99.90;;;;;;5052705;28;19912;-78
2021/04/02 03:30:17;;;;;;;;;;;7.30;99.90;;;;;;5052577;28;19905;-79
2021/04/02 03:32:49;;;;;;;;;;;7.10;99.90;;;;;;5052245;28;19905;-78
2021/04/02 03:35:16;;;;;;;;;;;7.00;99.90;;;;;;5052149;28;20280;-78
2021/04/02 03:37:44;;;;;;;;;;;6.90;99.90;;;;;;5052488;28;19959;-78
2021/04/02 03:40:11;;;;;;;;;;;6.90;99.90;;;;;;5051288;28;19905;-79
2021/04/02 03:42:38;;;;;;;;;;;7.10;99.90;;;;;;5051626;28;20375;-78
2021/04/02 03:45:06;;;;;;;;;;;6.80;99.90;;;;;;5052418;28;19913;-78
2021/04/02 03:47:33;;;;;;;;;;;6.60;99.90;;;;;;5052081;28;20359;-78
2021/04/02 03:50:00;;;;;;;;;;;6.30;99.90;;;;;;5052229;28;19944;-78
2021/04/02 03:52:30;;;;;;;;;;;6.30;99.90;;;;;;5050885;28;19919;-78
2021/04/02 03:54:56;;;;;;;;;;;6.30;99.90;;;;;;5050862;28;19909;-79
2021/04/02 03:57:24;;;;;;;;;;;6.40;99.90;;;;;;5052485;28;19970;-78
2021/04/02 03:59:51;;;;;;;;;;;6.70;99.90;;;;;;5052381;28;20287;-78
2021/04/02 04:02:17;;;;;;;;;;;6.70;99.90;;;;;;5051822;28;20308;-78
2021/04/02 04:04:44;;;;;;;;;;;6.50;99.90;;;;;;5053162;28;19948;-78
2021/04/02 04:07:10;;;;;;;;;;;6.40;99.90;;;;;;5055754;28;19933;-78
2021/04/02 04:09:36;;;;;;;;;;;6.40;99.90;;;;;;5054874;28;20346;-78
2021/04/02 04:12:02;;;;;;;;;;;6.40;99.90;;;;;;5055165;28;20003;-78
2021/04/02 04:14:29;;;;;;;;;;;6.40;99.90;;;;;;5055807;28;19909;-78
2021/04/02 04:16:56;;;;;;;;;;;6.70;99.90;;;;;;5055269;28;19904;-78
2021/04/02 04:19:22;;;;;;;;;;;6.80;99.90;;;;;;5055601;28;19904;-78
2021/04/02 04:21:48;;;;;;;;;;;6.80;99.90;;;;;;5055593;28;19934;-78
2021/04/02 04:24:15;;;;;;;;;;;6.70;99.90;;;;;;5054051;28;19931;-78
2021/04/02 04:26:46;;;;;;;;;;;6.40;99.90;;;;;;5054092;28;19954;-78
2021/04/02 04:29:34;;;;;;;;;;;6.50;99.90;;;;;;5055413;28;20338;-78
2021/04/02 04:32:01;;;;;;;;;;;6.60;99.90;;;;;;5054816;28;19992;-78
2021/04/02 04:34:28;;;;;;;;;;;6.80;99.90;;;;;;5054318;28;19905;-78
2021/04/02 04:36:54;;;;;;;;;;;6.90;99.90;;;;;;5051628;28;19912;-78
2021/04/02 04:39:21;;;;;;;;;;;6.80;99.90;;;;;;5054810;28;19982;-78
2021/04/02 04:41:46;;;;;;;;;;;6.20;99.90;;;;;;5048439;28;19913;-79
2021/04/02 04:44:12;;;;;;;;;;;5.90;99.90;;;;;;5054168;28;20004;-79
2021/04/02 04:46:38;;;;;;;;;;;5.60;99.90;;;;;;5052002;28;19909;-78
2021/04/02 04:49:04;;;;;;;;;;;5.90;99.90;;;;;;5045201;28;19947;-78
2021/04/02 04:51:32;;;;;;;;;;;6.20;99.90;;;;;;5045613;28;19962;-78
2021/04/02 04:53:58;;;;;;;;;;;6.30;99.90;;;;;;5046148;28;19916;-78
2021/04/02 04:56:27;;;;;;;;;;;6.50;99.90;;;;;;5054547;28;19905;-78
2021/04/02 04:58:54;;;;;;;;;;;6.50;99.90;;;;;;5053731;28;19961;-78
2021/04/02 05:01:20;;;;;;;;;;;6.30;99.90;;;;;;5052348;28;19920;-78
2021/04/02 05:03:46;;;;;;;;;;;6.20;99.90;;;;;;5045740;28;19920;-78
2021/04/02 05:06:13;;;;;;;;;;;6.30;99.90;;;;;;5046939;28;20379;-78
2021/04/02 05:08:40;;;;;;;;;;;6.40;99.90;;;;;;5047747;28;19905;-78
2021/04/02 05:11:07;;;;;;;;;;;6.60;99.90;;;;;;5045607;28;19911;-78
2021/04/02 05:13:34;;;;;;;;;;;6.90;99.90;;;;;;5054404;28;19905;-78
2021/04/02 05:16:00;;;;;;;;;;;7.00;99.90;;;;;;5053248;28;20000;-78
2021/04/02 05:18:28;;;;;;;;;;;6.90;99.90;;;;;;5053630;28;19956;-78
2021/04/02 05:20:53;;;;;;;;;;;6.60;99.90;;;;;;5053874;28;19911;-78
2021/04/02 05:23:19;;;;;;;;;;;6.50;99.90;;;;;;5052601;28;19991;-78
2021/04/02 05:25:45;;;;;;;;;;;6.60;99.90;;;;;;5054030;28;20422;-78
2021/04/02 05:28:11;;;;;;;;;;;6.60;99.90;;;;;;5053034;28;19904;-78
2021/04/02 05:30:37;;;;;;;;;;;6.80;99.90;;;;;;5054035;28;19908;-78
2021/04/02 05:33:03;;;;;;;;;;;6.90;99.90;;;;;;5047915;28;19909;-79
2021/04/02 05:35:29;;;;;;;;;;;6.90;99.90;;;;;;5052470;28;19919;-78
2021/04/02 05:37:54;;;;;;;;;;;6.90;99.90;;;;;;5053826;28;20283;-78
2021/04/02 05:40:20;;;;;;;;;;;6.90;99.90;;;;;;5052762;28;20376;-78
2021/04/02 05:42:59;;;;;;;;;;;6.90;99.90;;;;;;5040036;28;19912;-78
2021/04/02 05:45:25;;;;;;;;;;;6.90;99.90;;;;;;5042614;28;19934;-78
2021/04/02 05:47:54;;;;;;;;;;;6.90;99.90;;;;;;5039814;28;19927;-78
2021/04/02 05:50:20;;;;;;;;;;;6.90;99.90;;;;;;5039960;28;19944;-78
2021/04/02 05:52:47;;;;;;;;;;;6.90;99.90;;;;;;5039965;28;19925;-78
2021/04/02 05:55:14;;;;;;;;;;;6.90;99.90;;;;;;5047954;28;19905;-78
2021/04/02 05:57:40;;;;;;;;;;;7.00;99.90;;;;;;5052462;28;19905;-78
2021/04/02 06:00:06;;;;;;;;;;;6.90;99.90;;;;;;5052269;28;19911;-78
2021/04/02 06:02:32;;;;;;;;;;;6.80;99.90;;;;;;5052509;28;20313;-78
2021/04/02 06:05:00;;;;;;;;;;;6.90;99.90;;;;;;5052935;28;19908;-80
2021/04/02 06:07:25;;;;;;;;;;;7.00;99.90;;;;;;5052146;28;19904;-79
2021/04/02 06:09:51;;;;;;;;;;;7.00;99.90;;;;;;5052902;28;19911;-80
2021/04/02 06:12:17;;;;;;;;;;;7.20;99.90;;;;;;5050268;28;19935;-79
2021/04/02 06:14:42;;;;;;;;;;;7.20;99.90;;;;;;5052767;28;19980;-79
2021/04/02 06:17:09;;;;;;;;;;;7.30;99.90;;;;;;5051918;28;19990;-79
2021/04/02 06:19:34;;;;;;;;;;;7.40;99.90;;;;;;5047297;28;19904;-80
2021/04/02 06:22:00;;;;;;;;;;;7.50;99.90;;;;;;5053170;28;20442;-79
2021/04/02 06:24:41;;;;;;;;;;;7.60;99.90;;;;;;5053762;28;20098;-80
2021/04/02 06:27:09;;;;;;;;;;;7.60;99.90;;;;;;5053622;28;19911;-80
2021/04/02 06:29:46;;;;;;;;;;;7.70;99.90;;;;;;5052088;28;19905;-80
2021/04/02 06:32:13;;;;;;;;;;;7.90;99.90;;;;;;5052964;28;19905;-79
2021/04/02 06:34:49;;;;;;;;;;;8.00;99.90;;;;;;5051729;28;19911;-79
2021/04/02 06:37:17;;;;;;;;;;;8.10;99.90;;;;;;5053179;28;19904;-80
2021/04/02 06:39:50;;;;;;;;;;;8.10;99.90;;;;;;5052908;28;19909;-80
2021/04/02 06:42:36;;;;;;;;;;;8.10;99.90;;;;;;5052765;28;19912;-79
2021/04/02 06:45:03;;;;;;;;;;;8.10;99.90;;;;;;5052546;28;19905;-80
2021/04/02 06:47:36;;;;;;;;;;;8.20;99.90;;;;;;5052811;28;19915;-80
2021/04/02 06:50:12;;;;;;;;;;;8.20;99.90;;;;;;5051563;28;20356;-80
2021/04/02 06:52:38;;;;;;;;;;;8.30;99.90;;;;;;5052674;28;19913;-80
2021/04/02 06:55:04;;;;;;;;;;;8.30;99.90;;;;;;5052949;28;19920;-80
2021/04/02 06:57:31;;;;;;;;;;;8.40;99.90;;;;;;5052330;28;20340;-80
2021/04/02 06:59:58;;;;;;;;;;;8.50;99.90;;;;;;5052767;28;20376;-79
2021/04/02 07:02:24;;;;;;;;;;;8.70;99.90;;;;;;5051458;28;19912;-80
2021/04/02 07:04:51;;;;;;;;;;;9.00;99.90;;;;;;5052508;28;19940;-80
2021/04/02 07:07:18;;;;;;;;;;;8.90;99.90;;;;;;5052738;28;19905;-80
2021/04/02 07:09:44;;;;;;;;;;;8.80;99.90;;;;;;5052612;28;20022;-80
2021/04/02 07:12:11;;;;;;;;;;;8.60;99.90;;;;;;5052320;28;19944;-80
2021/04/02 07:14:38;;;;;;;;;;;8.80;99.90;;;;;;5052701;28;19904;-80
2021/04/02 07:17:04;;;;;;;;;;;9.10;99.90;;;;;;5052558;28;19974;-80
2021/04/02 07:19:29;;;;;;;;;;;9.40;99.90;;;;;;5052816;28;19905;-80
2021/04/02 07:21:55;;;;;;;;;;;9.30;99.90;;;;;;5052530;28;19950;-80
2021/04/02 07:24:21;;;;;;;;;;;9.30;99.90;;;;;;5052598;28;19944;-80
2021/04/02 07:26:47;;;;;;;;;;;9.30;99.90;;;;;;5052163;28;19905;-80
2021/04/02 07:29:13;;;;;;;;;;;9.40;99.90;;;;;;5052605;28;20391;-79
2021/04/02 07:31:39;;;;;;;;;;;9.70;99.90;;;;;;5052462;28;19983;-79
2021/04/02 07:34:06;;;;;;;;;;;9.90;99.90;;;;;;5052399;28;19912;-80
2021/04/02 07:36:34;;;;;;;;;;;10.10;99.90;;;;;;5052603;28;20352;-79
2021/04/02 07:39:02;;;;;;;;;;;10.30;99.90;;;;;;5051104;28;20007;-80
2021/04/02 07:41:27;;;;;;;;;;;10.50;99.90;;;;;;5055908;28;19905;-80
2021/04/02 07:43:55;;;;;;;;;;;10.70;99.90;;;;;;5054842;28;19919;-80
2021/04/02 07:46:27;;;;;;;;;;;10.80;99.90;;;;;;5056283;28;19905;-80
2021/04/02 07:49:00;;;;;;;;;;;11.10;99.90;;;;;;5056086;28;19911;-80
2021/04/02 07:51:41;;;;;;;;;;;11.40;99.90;;;;;;5056170;28;19904;-80
2021/04/02 07:54:25;;;;;;;;;;;11.70;99.10;;;;;;5055550;28;19916;-80
2021/04/02 07:56:51;;;;;;;;;;;12.10;98.90;;;;;;5055875;28;19904;-80
2021/04/02 07:59:17;;;;;;;;;;;12.30;98.50;;;;;;5056121;28;19905;-80
2021/04/02 08:01:58;;;;;;;;;;;12.50;98.30;;;;;;5056014;28;19911;-80
2021/04/02 08:04:35;;;;;;;;;;;12.80;96.80;;;;;;5055825;28;19909;-80
2021/04/02 08:07:00;;;;;;;;;;;13.00;96.00;;;;;;5055608;28;19912;-80
2021/04/02 08:09:26;;;;;;;;;;;13.30;93.70;;;;;;5055506;28;19905;-80
2021/04/02 08:11:55;;;;;;;;;;;13.20;93.50;;;;;;5055870;28;19905;-80
2021/04/02 08:14:31;;;;;;;;;;;13.30;93.50;;;;;;5055623;28;20003;-80
2021/04/02 08:16:56;;;;;;;;;;;13.40;93.40;;;;;;5055479;28;20368;-80
2021/04/02 08:19:29;;;;;;;;;;;13.60;93.80;;;;;;5055811;28;19911;-80
2021/04/02 08:21:56;;;;;;;;;;;13.60;92.80;;;;;;5055579;28;19908;-80
2021/04/02 08:24:22;;;;;;;;;;;14.30;91.90;;;;;;5055207;28;19908;-80
2021/04/02 08:26:49;;;;;;;;;;;14.90;88.50;;;;;;5055535;28;19939;-80
2021/04/02 08:29:15;;;;;;;;;;;15.60;86.40;;;;;;5055414;28;19905;-80
2021/04/02 08:31:45;;;;;;;;;;;16.20;85.30;;;;;;5055591;28;19911;-80
2021/04/02 08:34:13;;;;;;;;;;;16.10;81.40;;;;;;5055257;28;20357;-80
2021/04/02 08:36:39;;;;;;;;;;;16.10;83.70;;;;;;5055734;28;19912;-80
2021/04/02 08:39:05;;;;;;;;;;;16.00;78.80;;;;;;5054850;28;19909;-80
2021/04/02 08:41:31;;;;;;;;;;;16.40;82.30;;;;;;5053895;28;20288;-79
2021/04/02 08:44:00;;;;;;;;;;;16.40;73.90;;;;;;5055229;28;20386;-80
2021/04/02 08:46:35;;;;;;;;;;;16.60;73.10;;;;;;5055149;28;19911;-80
2021/04/02 08:49:01;;;;;;;;;;;16.90;73.40;;;;;;5053757;28;19905;-80
2021/04/02 08:51:27;;;;;;;;;;;17.30;71.70;;;;;;5053987;28;19927;-80
2021/04/02 08:53:52;;;;;;;;;;;17.80;70.00;;;;;;5054573;28;20014;-80
2021/04/02 08:56:22;;;;;;;;;;;18.10;69.10;;;;;;5054839;28;19948;-80
2021/04/02 08:58:48;;;;;;;;;;;17.30;68.20;;;;;;5055045;28;19912;-80
2021/04/02 09:01:16;;;;;;;;;;;16.80;70.20;;;;;;5054956;28;20312;-79
2021/04/02 09:03:42;;;;;;;;;;;17.00;69.60;;;;;;5054681;28;20292;-79
2021/04/02 09:06:08;;;;;;;;;;;19.20;64.60;;;;;;5054543;28;19916;-80
2021/04/02 09:08:36;;;;;;;;;;;22.10;58.30;;;;;;5054580;28;19905;-80
2021/04/02 09:11:06;;;;;;;;;;;23.80;54.30;;;;;;5054859;28;19905;-79
2021/04/02 09:13:35;;;;;;;;;;;23.40;53.70;;;;;;5054900;28;19905;-80
2021/04/02 09:16:07;;;;;;;;;;;22.40;51.80;;;;;;5054571;28;20291;-80
2021/04/02 09:18:33;;;;;;;;;;;21.20;54.00;;;;;;5054720;28;19905;-79
2021/04/02 09:20:59;;;;;;;;;;;20.60;58.10;;;;;;5054269;28;19931;-80
2021/04/02 09:23:24;;;;;;;;;;;20.00;58.80;;;;;;5054424;28;20284;-80
2021/04/02 09:25:52;;;;;;;;;;;19.00;60.60;;;;;;5054478;28;19958;-80
2021/04/02 09:28:24;;;;;;;;;;;18.50;65.00;;;;;;5054260;28;19935;-80
2021/04/02 09:30:50;;;;;;;;;;;18.00;64.30;;;;;;5054326;28;20386;-79
2021/04/02 09:33:16;;;;;;;;;;;17.60;66.50;;;;;;5054125;28;19991;-79
2021/04/02 09:35:42;;;;;;;;;;;17.50;68.00;;;;;;5053824;28;19908;-80
2021/04/02 09:38:08;;;;;;;;;;;17.60;66.60;;;;;;5054149;28;19908;-79
2021/04/02 09:40:34;;;;;;;;;;;17.60;67.00;;;;;;5054140;28;19908;-79
2021/04/02 09:42:59;;;;;;;;;;;17.70;67.90;;;;;;5054006;28;20364;-79
2021/04/02 09:45:28;;;;;;;;;;;17.80;69.00;;;;;;5053936;28;19939;-79
2021/04/02 09:47:54;;;;;;;;;;;18.30;70.60;;;;;;5054083;28;19932;-79
2021/04/02 09:50:20;;;;;;;;;;;19.20;68.40;;;;;;5053413;28;19924;-79
2021/04/02 09:52:46;;;;;;;;;;;22.00;60.10;;;;;;5053712;28;19917;-79
2021/04/02 09:55:13;;;;;;;;;;;24.30;54.10;;;;;;5053955;28;19943;-80
2021/04/02 09:57:38;;;;;;;;;;;25.60;51.50;;;;;;5053769;28;20001;-80
2021/04/02 10:00:08;;;;;;;;;;;25.50;48.80;;;;;;5053673;28;19963;-80
2021/04/02 10:02:34;;;;;;;;;;;24.30;50.50;;;;;;5053404;28;19908;-80
2021/04/02 10:05:00;;;;;;;;;;;22.80;53.40;;;;;;5053100;28;20311;-78
2021/04/02 10:07:26;;;;;;;;;;;24.10;53.60;;;;;;5053737;28;19911;-79
2021/04/02 10:09:51;;;;;;;;;;;24.80;49.80;;;;;;5053478;28;20291;-79
2021/04/02 10:12:17;;;;;;;;;;;28.60;46.60;;;;;;5052151;28;19905;-79
2021/04/02 10:14:42;;;;;;;;;;;30.50;42.40;;;;;;5053623;28;19958;-79
2021/04/02 10:17:11;;;;;;;;;;;30.90;42.60;;;;;;5053392;28;19908;-78
2021/04/02 10:19:37;;;;;;;;;;;31.50;41.10;;;;;;5053074;28;20364;-77
2021/04/02 10:22:03;;;;;;;;;;;31.10;39.90;;;;;;5053458;28;19905;-77
2021/04/02 10:24:29;;;;;;;;;;;31.40;39.00;;;;;;5053450;28;19958;-77
2021/04/02 10:26:56;;;;;;;;;;;30.80;41.70;;;;;;5053383;28;19947;-77
2021/04/02 10:29:22;;;;;;;;;;;31.30;40.80;;;;;;5052988;28;20437;-77
2021/04/02 10:31:48;;;;;;;;;;;31.10;39.90;;;;;;5053212;28;19904;-77
2021/04/02 10:34:13;;;;;;;;;;;30.60;40.20;;;;;;5052812;28;19931;-78
2021/04/02 10:36:39;;;;;;;;;;;26.80;44.70;;;;;;5053133;28;20288;-77
2021/04/02 10:39:04;;;;;;;;;;;28.00;44.50;;;;;;5053084;28;19990;-77
2021/04/02 10:41:30;;;;;;;;;;;28.00;41.70;;;;;;5052941;28;19911;-77
2021/04/02 10:43:56;;;;;;;;;;;28.80;42.80;;;;;;5053117;28;19943;-79
2021/04/02 10:46:21;;;;;;;;;;;30.00;42.60;;;;;;5052841;28;19909;-80
2021/04/02 10:48:47;;;;;;;;;;;30.50;40.00;;;;;;5052721;28;19901;-79
2021/04/02 10:51:12;;;;;;;;;;;32.40;36.00;;;;;;5052527;28;19912;-78
2021/04/02 10:53:38;;;;;;;;;;;30.40;38.10;;;;;;5052526;28;20418;-77
2021/04/02 10:56:05;;;;;;;;;;;29.70;39.80;;;;;;5053025;28;20311;-77
2021/04/02 10:58:31;;;;;;;;;;;29.20;42.00;;;;;;5052893;28;20323;-77
2021/04/02 11:00:56;;;;;;;;;;;30.30;39.00;;;;;;5052727;28;19909;-77
2021/04/02 11:03:22;;;;;;;;;;;32.90;36.70;;;;;;5052453;28;19951;-77
2021/04/02 11:05:48;;;;;;;;;;;33.10;35.30;;;;;;5052724;28;19996;-77
2021/04/02 11:08:14;;;;;;;;;;;32.10;35.10;;;;;;5052729;28;20016;-77
2021/04/02 11:10:39;;;;;;;;;;;33.50;36.90;;;;;;5052860;28;20267;-77
2021/04/02 11:13:05;;;;;;;;;;;33.60;34.00;;;;;;5052779;28;19958;-78
2021/04/02 11:15:31;;;;;;;;;;;28.40;38.70;;;;;;5054957;28;19987;-78
2021/04/02 11:17:56;;;;;;;;;;;28.30;40.70;;;;;;5056553;28;20372;-77
2021/04/02 11:20:25;;;;;;;;;;;27.10;41.80;;;;;;5056962;28;19920;-77
2021/04/02 11:22:51;;;;;;;;;;;28.20;41.30;;;;;;5056821;28;20038;-77
2021/04/02 11:25:17;;;;;;;;;;;32.50;36.40;;;;;;5056782;28;20381;-77
2021/04/02 11:27:42;;;;;;;;;;;34.00;33.40;;;;;;5057093;28;19928;-77
2021/04/02 11:30:09;;;;;;;;;;;36.00;33.90;;;;;;5056570;28;19905;-77
2021/04/02 11:32:35;;;;;;;;;;;36.50;32.70;;;;;;5056193;28;19905;-77
2021/04/02 11:35:00;;;;;;;;;;;37.30;33.10;;;;;;5056555;28;19967;-78
2021/04/02 11:37:26;;;;;;;;;;;37.40;31.70;;;;;;5056512;28;19927;-78
2021/04/02 11:39:52;;;;;;;;;;;37.90;32.00;;;;;;5055283;28;19905;-78
2021/04/02 11:42:17;;;;;;;;;;;38.70;33.30;;;;;;5056029;28;19966;-78
2021/04/02 11:44:43;;;;;;;;;;;39.40;33.80;;;;;;5056245;28;20343;-78
2021/04/02 11:47:09;;;;;;;;;;;39.80;32.80;;;;;;5056232;28;20466;-78
2021/04/02 11:49:36;;;;;;;;;;;39.60;32.20;;;;;;5054943;28;19905;-78
2021/04/02 11:52:03;;;;;;;;;;;39.40;32.20;;;;;;5055907;28;20467;-78
2021/04/02 11:54:28;;;;;;;;;;;39.60;32.90;;;;;;5055845;28;19915;-78
2021/04/02 11:56:54;;;;;;;;;;;39.40;31.80;;;;;;5056079;28;19995;-78
2021/04/02 11:59:19;;;;;;;;;;;39.50;32.40;;;;;;5056086;28;19904;-78
2021/04/02 12:01:45;;;;;;;;;;;39.30;33.20;;;;;;5055819;28;20353;-78
2021/04/02 12:04:11;;;;;;;;;;;39.40;33.90;;;;;;5056033;28;19920;-78
2021/04/02 12:06:36;;;;;;;;;;;39.40;32.70;;;;;;5055781;28;19916;-78
2021/04/02 12:09:03;;;;;;;;;;;39.80;33.20;;;;;;5055959;28;19904;-78
2021/04/02 12:11:29;;;;;;;;;;;39.70;31.20;;;;;;5055826;28;19908;-78
2021/04/02 12:13:54;;;;;;;;;;;39.40;31.40;;;;;;5054539;28;19935;-78
2021/04/02 12:16:20;;;;;;;;;;;39.90;32.80;;;;;;5055257;28;20276;-78
2021/04/02 12:18:46;;;;;;;;;;;39.90;32.00;;;;;;5055735;28;19905;-78
2021/04/02 12:21:11;;;;;;;;;;;40.20;32.30;;;;;;5055933;28;20424;-78
2021/04/02 12:23:37;;;;;;;;;;;35.20;33.10;;;;;;5055402;28;19908;-78
2021/04/02 12:26:03;;;;;;;;;;;31.20;37.50;;;;;;5055712;28;20320;-78
2021/04/02 12:28:29;;;;;;;;;;;30.60;40.30;;;;;;5055348;28;19909;-78
2021/04/02 12:30:54;;;;;;;;;;;29.40;41.90;;;;;;5055191;28;19908;-78
2021/04/02 12:33:20;;;;;;;;;;;32.20;41.50;;;;;;5055600;28;19932;-78
2021/04/02 12:35:46;;;;;;;;;;;32.00;39.40;;;;;;5055160;28;19939;-78
2021/04/02 12:38:12;;;;;;;;;;;30.90;41.10;;;;;;5055470;28;19908;-77
2021/04/02 12:40:38;;;;;;;;;;;34.50;41.00;;;;;;5055195;28;19905;-77
2021/04/02 12:43:04;;;;;;;;;;;37.20;36.60;;;;;;5055308;28;19958;-77
2021/04/02 12:45:30;;;;;;;;;;;38.00;35.20;;;;;;5054794;28;19905;-77
2021/04/02 12:47:55;;;;;;;;;;;38.40;34.00;;;;;;5055230;28;19945;-77
2021/04/02 12:50:23;;;;;;;;;;;38.60;32.00;;;;;;5055167;28;19912;-78
2021/04/02 12:52:48;;;;;;;;;;;39.20;32.80;;;;;;5054628;28;19996;-78
2021/04/02 12:55:16;;;;;;;;;;;38.50;33.90;;;;;;5055100;28;20012;-78
2021/04/02 12:57:42;;;;;;;;;;;38.30;33.30;;;;;;5054774;28;19905;-78
2021/04/02 13:00:10;;;;;;;;;;;38.20;33.00;;;;;;5054765;28;19905;-78
2021/04/02 13:02:35;;;;;;;;;;;38.30;33.20;;;;;;5053706;28;19905;-78
2021/04/02 13:05:01;;;;;;;;;;;39.20;33.50;;;;;;5054665;28;19912;-78
2021/04/02 13:07:27;;;;;;;;;;;39.00;34.30;;;;;;5054801;28;20011;-78
2021/04/02 13:09:52;;;;;;;;;;;38.80;31.90;;;;;;5054930;28;19905;-78
2021/04/02 13:12:18;;;;;;;;;;;39.10;33.40;;;;;;5054738;28;19963;-78
2021/04/02 13:14:43;;;;;;;;;;;36.90;33.10;;;;;;5054335;28;19951;-78
2021/04/02 13:17:09;;;;;;;;;;;36.60;35.90;;;;;;5054646;28;19944;-78
2021/04/02 13:19:35;;;;;;;;;;;34.60;35.40;;;;;;5054463;28;19905;-78
2021/04/02 13:22:01;;;;;;;;;;;35.70;35.90;;;;;;5054659;28;19905;-78
2021/04/02 13:24:27;;;;;;;;;;;35.20;35.20;;;;;;5054531;28;19911;-78
2021/04/02 13:26:52;;;;;;;;;;;36.50;35.00;;;;;;5054225;28;19905;-78
2021/04/02 13:29:18;;;;;;;;;;;37.20;32.80;;;;;;5054106;28;19905;-78
2021/04/02 13:31:43;;;;;;;;;;;37.60;31.60;;;;;;5054361;28;20068;-78
2021/04/02 13:34:09;;;;;;;;;;;37.20;33.20;;;;;;5054216;28;19915;-78
2021/04/02 13:36:35;;;;;;;;;;;34.90;35.60;;;;;;5054266;28;19927;-78
2021/04/02 13:39:00;;;;;;;;;;;36.10;36.00;;;;;;5053604;28;19905;-78
2021/04/02 13:41:26;;;;;;;;;;;36.90;35.00;;;;;;5054187;28;19951;-78
2021/04/02 13:43:51;;;;;;;;;;;37.80;34.50;;;;;;5053570;28;20317;-78
2021/04/02 13:46:17;;;;;;;;;;;37.60;36.40;;;;;;5052757;28;20388;-78
2021/04/02 13:48:43;;;;;;;;;;;37.80;34.20;;;;;;5053937;28;19967;-78
2021/04/02 13:51:08;;;;;;;;;;;34.20;35.70;;;;;;5053862;28;19928;-83
2021/04/02 13:53:34;;;;;;;;;;;32.40;38.70;;;;;;5053695;28;19921;-77
2021/04/02 13:55:59;;;;;;;;;;;32.30;37.90;;;;;;5053561;28;19909;-76
2021/04/02 13:58:25;;;;;;;;;;;31.80;42.30;;;;;;5040591;28;19909;-77
2021/04/02 14:00:51;;;;;;;;;;;33.70;38.40;;;;;;5047267;28;19905;-77
2021/04/02 14:03:17;;;;;;;;;;;33.50;37.20;;;;;;5049676;28;19904;-77
2021/04/02 14:05:43;;;;;;;;;;;32.60;38.50;;;;;;5051203;28;19916;-78
2021/04/02 14:08:08;;;;;;;;;;;32.80;40.80;;;;;;5051227;28;19998;-78
2021/04/02 14:10:37;;;;;;;;;;;34.20;38.10;;;;;;5050461;28;19958;-76
2021/04/02 14:13:06;;;;;;;;;;;34.60;36.20;;;;;;5050156;28;19923;-76
2021/04/02 14:15:33;;;;;;;;;;;35.20;37.70;;;;;;5046141;28;20384;-73
2021/04/02 14:17:59;;;;;;;;;;;35.40;36.50;;;;;;5051284;28;19912;-77
2021/04/02 14:20:27;;;;;;;;;;;35.30;35.90;;;;;;5051705;28;19912;-77
2021/04/02 14:22:53;;;;;;;;;;;35.50;34.80;;;;;;5052729;28;19931;-77